• Join FlightAware (Why Join?)
  • Login
  • US Flag 
02:56AM EST


 

Airport Tracker/Info


-or-


 

Live Flight TrackerFlight Track Log ✈ AWE1940 ✈ 13-May-2013 ✈ KIAH - KCLT

Flight Track Log - Related Links

Times and Time Zones

All times are in EDT time to prevent confusion due to time zone crossing. See the AWE1940 flight status page for this flight to view local times or setup timezone preferences in your user account.

Time Position Orientation Groundspeed Altitude Reporting Facility
EDT Latitude Longitude Course Direction KTS MPH feet Rate Location/Type
06:36PM 29.9767 -95.3008 41° Northeast 171 197 900  Level Houston Center
06:38PM 30.0547 -95.2500 29° Northeast 227 261 3,800 1,860 Climbing Houston Center
06:39PM 30.2545 -95.1082 30° Northeast  Level FlightAware Approximate
06:39PM 30.1219 -95.2131 25° Northeast 283 326 5,700  Level Houston Center
06:40PM 30.3495 -95.0404 35° Northeast  Level FlightAware Approximate
06:40PM 30.1886 -95.1672 31° Northeast 280 322 8,400  Level Houston Center
06:41PM 30.4381 -94.9619 41° Northeast  Level FlightAware Approximate
06:41PM 30.2533 -95.1175 34° Northeast 280 322 10,700  Level Houston Center
06:42PM 30.3336 -95.0589 32° Northeast 335 386 12,100 2,220 Climbing Houston Center
06:43PM 30.4411 -94.9764 33° Northeast 373 429 15,300 2,760 Climbing Houston Center
06:44PM 30.5311 -94.9089 33° Northeast 383 441 17,900 2,160 Climbing Houston Center
06:45PM 30.6236 -94.8361 34° Northeast 406 467 19,800 1,620 Climbing Houston Center
06:46PM 30.7214 -94.7619 33° Northeast 418 481 21,300 1,620 Climbing Houston Center
06:47PM 30.8222 -94.6847 33° Northeast 434 499 23,200 1,740 Climbing Houston Center
06:48PM 30.9250 -94.6047 34° Northeast 448 516 24,900 1,680 Climbing Houston Center
06:49PM 31.0519 -94.5058 34° Northeast 460 529 26,700 1,560 Climbing Houston Center
06:50PM 31.1592 -94.4228 34° Northeast 466 536 28,300 1,920 Climbing Fort Worth Center
06:51PM 31.2719 -94.3342 34° Northeast 477 549 30,700 1,380 Climbing Fort Worth Center
06:52PM 31.3803 -94.2500 34° Northeast 477 549 31,100 180 Climbing Fort Worth Center
06:53PM 31.4847 -94.1686 34° Northeast 467 537 31,100  Level Fort Worth Center
06:55PM 31.6019 -93.8389 67° East 474 545 31,100  Level Houston Center
06:56PM 31.6400 -93.6911 73° East 473 544 31,100  Level Houston Center
06:57PM 31.6781 -93.5467 73° East 472 543 31,100  Level Houston Center
06:58PM 31.7156 -93.4006 73° East 469 540 31,100 -60 Level Houston Center
07:00PM 31.7581 -93.2311 74° East 467 537 31,000 -60 Descending Houston Center
07:01PM 31.7939 -93.0856 74° East 465 535 31,000  Level Houston Center
07:02PM 31.8303 -92.9433 73° East 458 527 31,000  Level Houston Center
07:03PM 31.8647 -92.8011 74° East 454 522 31,000  Level Houston Center
07:04PM 31.9006 -92.6625 73° East 446 513 31,000  Level Houston Center
07:05PM 31.9356 -92.5231 73° East 445 512 31,000  Level Houston Center
07:06PM 31.9689 -92.3839 74° East 442 509 31,000  Level Houston Center
07:07PM 32.0103 -92.2169 74° East 442 509 31,000  Level Houston Center
07:08PM 32.0431 -92.0786 74° East 440 506 31,000  Level Houston Center
07:09PM 32.0786 -91.9289 74° East 439 505 31,100  Climbing Houston Center
07:10PM 32.1114 -91.7919 74° East 435 501 31,100  Level Houston Center
07:11PM 32.1439 -91.6553 74° East 434 499 31,100  Level Houston Center
07:12PM 32.1758 -91.5164 75° East 438 504 31,100  Level Houston Center
07:13PM 32.2100 -91.3786 74° East 439 505 31,100  Level Houston Center
07:14PM 32.2344 -91.2758 74° East 431 496 31,100  Level Memphis Center
07:15PM 32.2667 -91.1361 75° East 431 496 31,100  Level Memphis Center
07:16PM 32.2986 -90.9964 75° East 431 496 31,100  Level Memphis Center
07:17PM 32.3306 -90.8539 75° East 431 496 31,100  Level Memphis Center
07:18PM 32.3625 -90.7114 75° East 431 496 31,100  Level Memphis Center
07:19PM 32.3942 -90.5714 75° East 436 502 31,100  Level Memphis Center
07:20PM 32.4278 -90.4286 74° East 436 502 31,100  Level Memphis Center
07:21PM 32.4589 -90.2858 75° East 436 502 31,100  Level Memphis Center
07:22PM 32.4922 -90.1456 74° East 436 502 31,100  Level Memphis Center
07:23PM 32.5231 -90.0025 76° East 436 502 31,100  Level Memphis Center
07:24PM 32.5603 -89.8447 74° East 436 502 31,100  Level Memphis Center
07:25PM 32.5908 -89.6989 76° East 442 509 31,100  Level Memphis Center
07:26PM 32.6214 -89.5531 76° East 442 509 31,100  Level Memphis Center
07:27PM 32.6558 -89.4122 74° East 447 514 31,100  Level Memphis Center
07:28PM 32.6858 -89.2664 76° East 447 514 31,100  Level Memphis Center
07:29PM 32.7181 -89.1228 75° East 452 520 31,100  Level Memphis Center
07:30PM 32.7497 -88.9764 76° East 452 520 31,100  Level Memphis Center
07:31PM 32.7814 -88.8278 76° East 452 520 31,100  Level Memphis Center
07:32PM 32.8131 -88.6814 76° East 452 520 31,100  Level Memphis Center
07:33PM 32.8425 -88.5472 75° East 457 526 31,100  Level Memphis Center
07:35PM 32.8997 -88.2569 77° East 455 524 31,100  Level Atlanta Center
07:36PM 32.9278 -88.1072 77° East 455 524 31,100  Level Atlanta Center
07:37PM 32.9617 -87.9628 74° East 455 524 31,100  Level Atlanta Center
07:38PM 32.9994 -87.8183 73° East 450 518 31,100  Level Atlanta Center
07:39PM 33.0556 -87.6869 63° Northeast 450 518 31,100  Level Atlanta Center
07:40PM 33.1178 -87.5558 60° Northeast 444 511 31,100  Level Atlanta Center
07:41PM 33.1800 -87.4267 60° Northeast 444 511 31,100  Level Atlanta Center
07:42PM 33.2294 -87.2894 67° East 444 511 31,100  Level Atlanta Center
07:43PM 33.2481 -87.1386 82° East 444 511 31,100  Level Atlanta Center
07:44PM 33.2747 -86.9881 78° East 455 524 31,100  Level Atlanta Center
07:45PM 33.2975 -86.8197 81° East 455 524 31,100  Level Atlanta Center
07:46PM 33.3175 -86.6714 81° East 460 529 31,100  Level Atlanta Center
07:47PM 33.3392 -86.5203 80° East 460 529 31,100  Level Atlanta Center
07:48PM 33.3653 -86.3719 78° East 465 535 31,100  Level Atlanta Center
07:49PM 33.3889 -86.2158 80° East 465 535 31,100  Level Atlanta Center
07:50PM 33.4103 -86.0619 81° East 465 535 31,100  Level Atlanta Center
07:51PM 33.4314 -85.9083 81° East 470 541 31,100  Level Atlanta Center
07:52PM 33.4503 -85.7742 80° East 464 534 31,100  Level Atlanta Center
07:53PM 33.4711 -85.6228 81° East 464 534 31,100  Level Atlanta Center
07:54PM 33.4917 -85.4686 81° East 464 534 31,100  Level Atlanta Center
07:55PM 33.5122 -85.3169 81° East 464 534 31,100  Level Atlanta Center
07:56PM 33.5325 -85.1628 81° East 464 534 31,100  Level Atlanta Center
07:57PM 33.5525 -85.0108 81° East 458 527 31,100  Level Atlanta Center
07:58PM 33.5725 -84.8592 81° East 458 527 31,100  Level Atlanta Center
07:59PM 33.5964 -84.6972 80° East 463 533 31,100  Level Atlanta Center
08:00PM 33.6158 -84.5353 82° East 469 540 31,100  Level Atlanta Center
08:01PM 33.6414 -84.3906 78° East 463 533 31,100  Level Atlanta Center
08:02PM 33.6814 -84.2461 72° East 452 520 31,100  Level Atlanta Center
08:03PM 33.7192 -84.1136 71° East 458 527 31,100  Level Atlanta Center
08:04PM 33.7586 -83.9664 72° East 458 527 31,100  Level Atlanta Center
08:05PM 33.8025 -83.8114 71° East 458 527 31,100  Level Atlanta Center
08:06PM 33.8439 -83.6661 71° East 458 527 31,100  Level Atlanta Center
08:07PM 33.8808 -83.5258 72° East 452 520 31,100  Level Atlanta Center
08:08PM 33.9239 -83.3828 70° East 440 506 31,100  Level Atlanta Center
08:09PM 33.9794 -83.2547 62° Northeast 435 501 31,100  Level Atlanta Center
08:10PM 34.0392 -83.1264 61° Northeast 435 501 31,100  Level Atlanta Center
08:11PM 34.0986 -82.9978 61° Northeast 435 501 31,100  Level Atlanta Center
08:12PM 34.1581 -82.8639 62° Northeast 440 506 31,100 -840 Level Atlanta Center
08:13PM 34.2153 -82.7325 62° Northeast 440 506 29,500 -1,860 Descending Atlanta Center
08:14PM 34.2742 -82.6008 62° Northeast 440 506 27,400 -2,100 Descending Atlanta Center
08:15PM 34.3311 -82.4692 62° Northeast 440 506 25,300 -1,680 Descending Atlanta Center
08:16PM 34.3897 -82.3372 62° Northeast 440 506 24,100 -1,560 Descending Atlanta Center
08:17PM 34.4464 -82.2050 63° Northeast 440 506 22,200 -2,160 Descending Atlanta Center
08:18PM 34.5008 -82.0778 63° Northeast 440 506 19,800 -2,400 Descending Atlanta Center
08:19PM 34.5550 -81.9503 63° Northeast 435 501 17,400 -2,400 Descending Atlanta Center
08:20PM 34.6092 -81.8281 62° Northeast 429 494 15,000 -2,460 Descending Atlanta Center
08:21PM 34.6611 -81.7106 62° Northeast 400 460 12,500 -2,400 Descending Atlanta Center
08:21PM 34.6811 -81.6644 62° Northeast 379 436 11,700 -1,500 Descending Atlanta Center
08:22PM 34.7072 -81.6031 63° Northeast 378 435 11,000 -420 Descending Atlanta Center
08:23PM 34.7536 -81.5208 56° Northeast 290 334 11,100 -420 Climbing Atlanta Center
08:24PM 34.7997 -81.4408 55° Northeast 288 331 10,300 -1,080 Descending Atlanta Center
08:25PM 34.7997 -81.3422 90° East 285 328 8,900 -1,260 Descending Atlanta Center
08:26PM 34.8058 -81.2433 86° East 289 333 7,800 -960 Descending Atlanta Center
08:27PM 34.8228 -81.1594 76° East 248 285 7,100 -600 Descending Atlanta Center
08:28PM 34.8478 -81.0750 70° East 238 274 6,700 -720 Descending Atlanta Center
08:29PM 34.8692 -81.0108 68° East 239 275 5,700 -840 Descending Atlanta Center
08:30PM 34.9203 -80.9686 34° Northeast 188 216 5,100 -720 Descending Atlanta Center
08:31PM 34.9594 -80.9494 22° Northeast 181 208 4,300 -540 Descending Atlanta Center
08:32PM 35.0117 -80.9525 357° North 164 189 4,100 -420 Descending Atlanta Center
08:33PM 35.0619 -80.9558 357° North 163 188 3,500 -720 Descending Atlanta Center
08:34PM 35.1039 -80.9592 356° North 154 177 2,700 -780 Descending Atlanta Center
08:35PM 35.1414 -80.9631 355° North 133 153 2,000 -720 Descending Atlanta Center
08:36PM 35.1792 -80.9667 356° North 130 150 1,300 -720 Descending Atlanta Center